Albertson, North Carolina
Current Conditions -  °F | °C
As of 1:15 PM on Sunday 25 Jan 2015 (Local Time) from KDPL Reporting Station
Clear Clear  
Wind Chill: 52°   Ceiling: Unl
Heat Index: 52°   Visibility: 10mi
Dew Point: 31°   Wind: 3mph
Humidity: 43%   Direction: 250°WSW
Pressure: 29.94"   Gusts: NA
Location:  35.11°N, 77.82°W
Report Text: KDPL 251815Z AUTO 25003KT 10SM CLR 11/M01 A2994 RMK AO2 T01131008
Loading
Personal Weather Stations






























Interactive Weather Map New forecast layout! Learn more

10-Day Weather Forecast

Advertisements
Track Severe Weather on mobile